createdAt,value
2023-08-17T00:00:49.688Z,3.30
2023-08-17T00:03:17.407Z,3.35
2023-08-17T00:05:45.281Z,3.33
2023-08-17T00:08:12.925Z,3.20
2023-08-17T00:10:41.967Z,2.97
2023-08-17T00:13:09.611Z,3.00
2023-08-17T00:15:37.323Z,2.67
2023-08-17T00:18:05.603Z,2.97
2023-08-17T00:20:33.330Z,2.65
2023-08-17T00:23:00.968Z,2.97
2023-08-17T00:25:28.634Z,3.37
2023-08-17T00:27:57.680Z,2.97
2023-08-17T00:30:25.738Z,2.43
2023-08-17T00:32:53.584Z,2.60
2023-08-17T00:35:21.353Z,3.10
2023-08-17T00:37:49.057Z,3.10
2023-08-17T00:40:16.832Z,3.60
2023-08-17T00:42:44.509Z,2.83
2023-08-17T00:45:13.748Z,3.83
2023-08-17T00:47:42.005Z,4.17
2023-08-17T00:50:10.310Z,3.60
2023-08-17T00:52:38.061Z,3.83
2023-08-17T00:55:07.535Z,3.63
2023-08-17T00:57:35.787Z,3.35
2023-08-17T01:00:06.291Z,3.23
2023-08-17T01:02:36.762Z,3.60
2023-08-17T01:05:07.043Z,3.27
2023-08-17T01:07:34.771Z,3.50
2023-08-17T01:10:04.256Z,3.47
2023-08-17T01:12:33.376Z,3.60
2023-08-17T01:15:07.422Z,3.17
2023-08-17T01:17:42.360Z,3.50
2023-08-17T01:20:13.309Z,3.70
2023-08-17T01:22:43.467Z,3.47
2023-08-17T01:25:12.516Z,3.17
2023-08-17T01:27:42.682Z,3.50
2023-08-17T01:30:12.899Z,3.93
2023-08-17T01:32:46.532Z,3.03
2023-08-17T01:35:22.657Z,3.77
2023-08-17T01:37:54.034Z,3.87
2023-08-17T01:40:24.993Z,3.47
2023-08-17T01:42:53.035Z,3.13
2023-08-17T01:45:20.857Z,3.70
2023-08-17T01:47:48.540Z,3.40
2023-08-17T01:50:16.203Z,3.17
2023-08-17T01:52:43.973Z,3.20
2023-08-17T01:55:11.665Z,2.93
2023-08-17T01:57:40.684Z,3.00
2023-08-17T02:00:11.686Z,2.93
2023-08-17T02:02:39.446Z,3.17
2023-08-17T02:05:07.760Z,2.67
2023-08-17T02:07:35.452Z,2.90
2023-08-17T02:10:03.218Z,2.50
2023-08-17T02:12:30.998Z,2.60
2023-08-17T02:15:00.004Z,2.63
2023-08-17T02:17:28.440Z,2.70
2023-08-17T02:19:56.262Z,2.80
2023-08-17T02:22:24.120Z,2.73
2023-08-17T02:24:53.464Z,2.57
2023-08-17T02:27:21.105Z,2.73
2023-08-17T02:29:48.828Z,2.40
2023-08-17T02:32:17.798Z,2.43
2023-08-17T02:34:45.519Z,2.27
2023-08-17T02:37:13.165Z,2.87
2023-08-17T02:39:41.874Z,2.67
2023-08-17T02:42:09.707Z,3.10
2023-08-17T02:44:37.427Z,3.17
2023-08-17T02:47:05.314Z,3.00
2023-08-17T02:49:34.525Z,2.90
2023-08-17T02:52:02.198Z,3.77
2023-08-17T02:54:29.896Z,4.00
2023-08-17T02:56:57.609Z,4.30
2023-08-17T02:59:25.349Z,4.50
2023-08-17T03:01:53.033Z,5.00
2023-08-17T03:04:20.965Z,5.00
2023-08-17T03:06:50.048Z,5.43
2023-08-17T03:09:17.711Z,6.80
2023-08-17T03:11:45.412Z,6.00
2023-08-17T03:14:13.529Z,6.77
2023-08-17T03:16:41.204Z,7.40
2023-08-17T03:19:11.961Z,7.50
2023-08-17T03:21:40.008Z,8.63
2023-08-17T03:24:09.394Z,8.40
2023-08-17T03:26:37.104Z,8.67
2023-08-17T03:29:04.785Z,9.30
2023-08-17T03:31:32.503Z,9.37
2023-08-17T03:34:01.397Z,10.23
2023-08-17T03:36:29.067Z,10.50
2023-08-17T03:38:56.761Z,11.63
2023-08-17T03:41:26.629Z,12.05
2023-08-17T03:43:54.270Z,11.27
2023-08-17T03:46:22.004Z,12.30
2023-08-17T03:48:49.802Z,12.47
2023-08-17T03:51:17.502Z,13.40
2023-08-17T03:53:45.156Z,13.60
2023-08-17T03:56:12.793Z,12.47
2023-08-17T03:58:41.801Z,14.77
2023-08-17T04:01:09.420Z,13.60
2023-08-17T04:03:37.175Z,15.33
2023-08-17T04:06:07.299Z,15.33
2023-08-17T04:08:35.090Z,15.87
2023-08-17T04:11:02.717Z,15.53
2023-08-17T04:13:30.374Z,16.40
2023-08-17T04:15:59.476Z,15.60
2023-08-17T04:18:27.150Z,16.00
2023-08-17T04:20:55.544Z,16.13
2023-08-17T04:23:23.385Z,16.77
2023-08-17T04:25:51.038Z,16.27
2023-08-17T04:28:18.661Z,17.17
2023-08-17T04:30:46.349Z,17.60
2023-08-17T04:33:15.352Z,17.60
2023-08-17T04:35:43.071Z,18.83
2023-08-17T04:38:10.720Z,20.33
2023-08-17T04:40:38.640Z,19.43
2023-08-17T04:43:06.651Z,20.50
2023-08-17T04:45:34.427Z,19.87
2023-08-17T04:48:02.263Z,20.23
2023-08-17T04:50:31.483Z,20.93
2023-08-17T04:52:59.173Z,21.73
2023-08-17T04:55:26.855Z,22.37
2023-08-17T04:57:54.579Z,20.27
2023-08-17T05:00:28.600Z,21.47
2023-08-17T05:02:56.456Z,20.87
2023-08-17T05:05:24.970Z,20.90
2023-08-17T05:07:54.663Z,21.63
2023-08-17T05:10:22.557Z,21.43
2023-08-17T05:12:50.228Z,20.77
2023-08-17T05:15:18.045Z,21.17
2023-08-17T05:17:45.683Z,22.43
2023-08-17T05:20:14.864Z,22.53
2023-08-17T05:22:42.632Z,23.50
2023-08-17T05:25:11.775Z,21.93
2023-08-17T05:27:38.466Z,24.30
2023-08-17T05:30:07.766Z,23.40
2023-08-17T05:32:35.446Z,23.87
2023-08-17T05:35:03.095Z,23.83
2023-08-17T05:37:30.729Z,24.20
2023-08-17T05:39:58.396Z,23.50
2023-08-17T05:42:27.456Z,22.73
2023-08-17T05:44:55.059Z,23.03
2023-08-17T05:47:22.756Z,22.97
2023-08-17T05:49:50.490Z,24.30
2023-08-17T05:52:18.152Z,23.07
2023-08-17T05:54:45.765Z,24.43
2023-08-17T05:57:13.528Z,23.73
2023-08-17T05:59:42.530Z,24.30
2023-08-17T06:02:10.222Z,24.70
2023-08-17T06:04:38.001Z,23.37
2023-08-17T06:07:06.002Z,23.27
2023-08-17T06:09:33.692Z,23.40
2023-08-17T06:12:01.403Z,23.40
2023-08-17T06:14:29.058Z,24.37
2023-08-17T06:16:58.066Z,24.87
2023-08-17T06:19:25.736Z,24.00
2023-08-17T06:21:53.464Z,24.17
2023-08-17T06:24:21.156Z,24.60
2023-08-17T06:26:48.852Z,25.40
2023-08-17T06:29:16.850Z,24.77
2023-08-17T06:31:44.506Z,24.17
2023-08-17T06:34:13.496Z,22.67
2023-08-17T06:36:41.424Z,21.93
2023-08-17T06:39:09.863Z,20.37
2023-08-17T06:41:37.515Z,17.50
2023-08-17T06:44:07.074Z,17.20
2023-08-17T06:46:34.733Z,15.30
2023-08-17T06:49:02.372Z,15.17
2023-08-17T06:51:31.495Z,13.67
2023-08-17T06:53:59.153Z,14.10
2023-08-17T06:56:26.797Z,13.97
2023-08-17T06:58:54.840Z,13.97
2023-08-17T07:01:22.475Z,12.37
2023-08-17T07:03:50.253Z,13.00
2023-08-17T07:06:17.946Z,11.70
2023-08-17T07:08:47.130Z,11.77
2023-08-17T07:11:14.783Z,10.67
2023-08-17T07:13:42.423Z,10.98
2023-08-17T07:16:10.547Z,12.23
2023-08-17T07:18:38.299Z,13.90
2023-08-17T07:21:05.973Z,14.47
2023-08-17T07:23:33.690Z,16.07
2023-08-17T07:26:02.692Z,15.63
2023-08-17T07:28:30.498Z,15.40
2023-08-17T07:30:58.156Z,15.40
2023-08-17T07:33:25.846Z,14.15
2023-08-17T07:35:54.251Z,13.98
2023-08-17T07:38:21.949Z,12.00
2023-08-17T07:40:49.613Z,11.70
2023-08-17T07:43:18.667Z,11.32
2023-08-17T07:45:46.485Z,11.90
2023-08-17T07:48:14.206Z,12.70
2023-08-17T07:50:41.935Z,11.50
2023-08-17T07:53:09.677Z,10.70
2023-08-17T07:55:37.385Z,10.80
2023-08-17T07:58:06.801Z,11.33
2023-08-17T08:00:35.820Z,11.90
2023-08-17T08:03:03.640Z,12.13
2023-08-17T08:05:31.385Z,10.10
2023-08-17T08:07:59.101Z,10.38
2023-08-17T08:10:26.845Z,10.50
2023-08-17T08:12:54.546Z,9.60
2023-08-17T08:15:22.362Z,9.80
2023-08-17T08:17:51.572Z,10.38
2023-08-17T08:20:19.471Z,11.30
2023-08-17T08:22:47.091Z,10.33
2023-08-17T08:25:14.697Z,35.17
2023-08-17T08:27:42.576Z,13.55
2023-08-17T08:30:10.830Z,12.98
2023-08-17T08:32:38.495Z,11.93
2023-08-17T08:35:08.230Z,10.90
2023-08-17T08:37:35.883Z,11.80
2023-08-17T08:40:03.617Z,12.13
2023-08-17T08:42:31.294Z,10.90
2023-08-17T08:44:58.989Z,10.50
2023-08-17T08:47:28.934Z,11.20
2023-08-17T08:50:03.470Z,11.93
2023-08-17T08:52:36.687Z,9.98
2023-08-17T08:55:14.224Z,10.18
2023-08-17T08:57:43.338Z,11.25
2023-08-17T09:00:13.488Z,12.02
2023-08-17T09:02:41.795Z,10.27
2023-08-17T09:05:12.083Z,10.27
2023-08-17T09:07:41.823Z,9.30
2023-08-17T09:10:11.824Z,9.80
2023-08-17T09:12:41.835Z,9.45
2023-08-17T09:15:10.515Z,9.82
2023-08-17T09:17:38.298Z,10.98
2023-08-17T09:20:08.493Z,9.90
2023-08-17T09:22:42.693Z,9.27
2023-08-17T09:25:11.657Z,10.38
2023-08-17T09:27:42.158Z,10.55
2023-08-17T09:30:12.035Z,8.48
2023-08-17T09:32:39.914Z,9.77
2023-08-17T09:35:09.004Z,9.90
2023-08-17T09:37:36.942Z,9.40
2023-08-17T09:40:06.686Z,8.57
2023-08-17T09:42:37.336Z,9.95
2023-08-17T09:45:05.822Z,10.88
2023-08-17T09:47:33.646Z,9.85
2023-08-17T09:50:01.361Z,9.43
2023-08-17T09:52:29.264Z,9.63
2023-08-17T09:54:58.313Z,9.30
2023-08-17T09:57:27.878Z,8.80
2023-08-17T09:59:56.555Z,8.45
2023-08-17T10:02:26.134Z,9.52
2023-08-17T10:04:59.247Z,9.07
2023-08-17T10:07:34.362Z,8.95
2023-08-17T10:10:05.440Z,9.27
2023-08-17T10:12:39.645Z,7.68
2023-08-17T10:15:12.708Z,8.25
2023-08-17T10:17:56.727Z,8.75
2023-08-17T10:20:25.493Z,8.90
2023-08-17T10:23:01.944Z,7.72
2023-08-17T10:25:30.791Z,8.65
2023-08-17T10:28:01.431Z,9.07
2023-08-17T10:30:29.383Z,8.18
2023-08-17T10:32:57.918Z,8.15
2023-08-17T10:35:26.082Z,7.70
2023-08-17T10:37:53.911Z,8.32
2023-08-17T10:40:27.996Z,7.95
2023-08-17T10:42:57.034Z,6.70
2023-08-17T10:45:31.634Z,6.63
2023-08-17T10:48:28.273Z,7.00
2023-08-17T10:51:04.586Z,5.50
2023-08-17T10:53:43.599Z,5.97
2023-08-17T10:56:13.986Z,5.95
2023-08-17T10:58:42.392Z,6.63
2023-08-17T11:01:11.949Z,5.82
2023-08-17T11:03:40.509Z,7.05
2023-08-17T11:06:19.557Z,5.88
2023-08-17T11:08:55.781Z,5.80
2023-08-17T11:11:24.896Z,6.32
2023-08-17T11:13:57.922Z,5.50
2023-08-17T11:16:27.191Z,5.47
2023-08-17T11:18:58.191Z,5.50
2023-08-17T11:21:26.104Z,5.47
2023-08-17T11:23:57.792Z,5.07
2023-08-17T11:26:26.046Z,4.80
2023-08-17T11:28:54.001Z,5.13
2023-08-17T11:31:21.640Z,4.25
2023-08-17T11:36:24.091Z,4.47
2023-08-17T11:38:51.752Z,3.92
2023-08-17T11:41:19.955Z,4.55
2023-08-17T11:43:48.095Z,4.25
2023-08-17T11:46:17.462Z,3.95
2023-08-17T11:48:45.270Z,4.13
2023-08-17T11:51:14.333Z,3.85
2023-08-17T11:53:42.204Z,4.13
2023-08-17T11:56:11.144Z,4.30
2023-08-17T11:58:44.057Z,4.32
2023-08-17T12:01:13.657Z,4.47
2023-08-17T12:03:43.181Z,3.80
2023-08-17T12:06:11.684Z,4.60
2023-08-17T12:08:45.517Z,5.07
2023-08-17T12:11:14.503Z,5.80
2023-08-17T12:13:42.184Z,5.35
2023-08-17T12:16:17.074Z,5.22
2023-08-17T12:18:46.341Z,5.15
2023-08-17T12:21:14.075Z,6.00
2023-08-17T12:23:43.492Z,5.30
2023-08-17T12:26:11.259Z,6.30
2023-08-17T12:28:42.179Z,5.93
2023-08-17T12:31:09.958Z,6.43
2023-08-17T12:33:37.698Z,5.10
2023-08-17T12:36:07.827Z,4.93
2023-08-17T12:38:35.717Z,7.07
2023-08-17T12:41:07.522Z,5.97
2023-08-17T12:43:35.294Z,5.72
2023-08-17T12:46:02.963Z,4.53
2023-08-17T12:51:05.056Z,5.18
2023-08-17T12:53:33.164Z,4.78
2023-08-17T12:56:00.893Z,5.15
2023-08-17T12:58:29.937Z,5.60
2023-08-17T13:00:57.857Z,5.38
2023-08-17T13:03:25.729Z,6.20
2023-08-17T13:05:53.444Z,5.55
2023-08-17T13:08:21.172Z,5.88
2023-08-17T13:10:48.798Z,4.97
2023-08-17T13:13:16.423Z,6.68
2023-08-17T13:15:45.408Z,6.18
2023-08-17T13:18:13.108Z,5.63
2023-08-17T13:20:41.459Z,5.22
2023-08-17T13:23:09.339Z,5.05
2023-08-17T13:25:37.046Z,4.75
2023-08-17T13:28:05.217Z,5.63
2023-08-17T13:30:33.060Z,6.13
2023-08-17T13:33:02.240Z,5.13
2023-08-17T13:35:29.979Z,5.25
2023-08-17T13:37:58.637Z,4.35
2023-08-17T13:40:26.557Z,4.97
2023-08-17T13:42:54.236Z,6.18
2023-08-17T13:45:21.894Z,5.68
2023-08-17T13:47:49.621Z,5.03
2023-08-17T13:50:19.622Z,5.20
2023-08-17T13:52:47.907Z,4.75
2023-08-17T13:55:15.561Z,4.90
2023-08-17T13:57:43.209Z,5.90
2023-08-17T14:00:12.312Z,5.18
2023-08-17T14:02:40.332Z,4.80
2023-08-17T14:05:08.816Z,4.40
2023-08-17T14:07:37.812Z,4.40
2023-08-17T14:10:10.709Z,4.20
2023-08-17T14:12:42.813Z,4.45
2023-08-17T14:15:11.193Z,4.90
2023-08-17T14:17:38.869Z,4.47
2023-08-17T14:20:07.407Z,3.88
2023-08-17T14:22:35.065Z,3.95
2023-08-17T14:25:04.222Z,4.40
2023-08-17T14:27:31.876Z,3.90
2023-08-17T14:30:02.381Z,3.53
2023-08-17T14:32:32.860Z,3.58
2023-08-17T14:35:02.544Z,3.47
2023-08-17T14:37:30.432Z,4.20
2023-08-17T14:39:58.417Z,3.70
2023-08-17T14:42:28.146Z,3.80
2023-08-17T14:44:56.158Z,3.90
2023-08-17T14:47:24.002Z,3.20
2023-08-17T14:49:51.668Z,3.35
2023-08-17T14:52:19.305Z,3.63
2023-08-17T14:54:46.949Z,3.65
2023-08-17T14:57:14.674Z,3.53
2023-08-17T14:59:43.669Z,4.00
2023-08-17T15:02:11.570Z,3.75
2023-08-17T15:04:39.674Z,3.50
2023-08-17T15:07:12.258Z,3.15
2023-08-17T15:09:40.250Z,2.92
2023-08-17T15:12:08.352Z,3.20
2023-08-17T15:14:36.034Z,3.40
2023-08-17T15:17:05.099Z,3.80
2023-08-17T15:19:40.477Z,3.67
2023-08-17T15:22:15.515Z,3.58
2023-08-17T15:24:44.774Z,3.75
2023-08-17T15:27:12.574Z,4.20
2023-08-17T15:29:41.052Z,3.53
2023-08-17T15:32:10.670Z,3.58
2023-08-17T15:34:38.365Z,3.40
2023-08-17T15:37:08.242Z,3.35
2023-08-17T15:39:36.141Z,3.33
2023-08-17T15:42:05.006Z,3.10
2023-08-17T15:44:33.529Z,3.00
2023-08-17T15:47:02.681Z,4.35
2023-08-17T15:49:31.782Z,4.13
2023-08-17T15:51:59.968Z,3.47
2023-08-17T15:54:35.911Z,4.28
2023-08-17T15:57:07.089Z,3.65
2023-08-17T15:59:35.184Z,4.00
2023-08-17T16:02:03.108Z,3.20
2023-08-17T16:04:34.635Z,3.75
2023-08-17T16:07:02.377Z,3.88
2023-08-17T16:09:31.604Z,3.92
2023-08-17T16:12:02.126Z,3.22
2023-08-17T16:14:29.765Z,3.63
2023-08-17T16:16:57.886Z,3.40
2023-08-17T16:19:25.728Z,3.50
2023-08-17T16:21:54.854Z,3.70
2023-08-17T16:24:27.396Z,3.20
2023-08-17T16:26:56.130Z,3.28
2023-08-17T16:29:24.999Z,3.45
2023-08-17T16:32:09.267Z,3.22
2023-08-17T16:34:37.510Z,3.78
2023-08-17T16:37:07.050Z,4.28
2023-08-17T16:39:34.696Z,3.70
2023-08-17T16:42:02.401Z,3.85
2023-08-17T16:44:30.074Z,3.50
2023-08-17T16:46:57.708Z,3.63
2023-08-17T16:51:55.939Z,3.63
2023-08-17T16:54:24.961Z,4.00
2023-08-17T16:56:54.181Z,3.85
2023-08-17T16:59:22.375Z,3.45
2023-08-17T17:01:50.217Z,3.05
2023-08-17T17:04:18.625Z,2.88
2023-08-17T17:06:46.354Z,3.40
2023-08-17T17:09:13.976Z,2.63
2023-08-17T17:11:43.052Z,3.53
2023-08-17T17:14:10.989Z,3.80
2023-08-17T17:16:38.806Z,3.78
2023-08-17T17:19:06.608Z,3.75
2023-08-17T17:21:34.595Z,3.38
2023-08-17T17:24:03.871Z,3.30
2023-08-17T17:26:32.962Z,3.50
2023-08-17T17:29:03.155Z,3.75
2023-08-17T17:31:30.892Z,3.35
2023-08-17T17:33:58.625Z,3.33
2023-08-17T17:36:26.568Z,3.35
2023-08-17T17:38:55.791Z,3.38
2023-08-17T17:41:23.458Z,3.58
2023-08-17T17:43:53.789Z,3.20
2023-08-17T17:46:22.861Z,2.72
2023-08-17T17:48:50.814Z,3.00
2023-08-17T17:51:18.477Z,3.25
2023-08-17T17:53:46.127Z,3.53
2023-08-17T17:56:14.394Z,3.25
2023-08-17T17:58:42.071Z,3.63
2023-08-17T18:01:11.080Z,3.40
2023-08-17T18:03:40.170Z,3.22
2023-08-17T18:06:08.366Z,4.00
2023-08-17T18:08:37.513Z,4.20
2023-08-17T18:11:05.516Z,3.80
2023-08-17T18:13:33.474Z,4.30
2023-08-17T18:16:03.529Z,4.20
2023-08-17T18:18:33.510Z,4.13
2023-08-17T18:21:02.466Z,4.10
2023-08-17T18:23:32.508Z,3.85
2023-08-17T18:26:01.209Z,4.30
2023-08-17T18:28:29.068Z,4.60
2023-08-17T18:30:57.963Z,4.70
2023-08-17T18:33:25.809Z,4.45
2023-08-17T18:35:55.161Z,4.10
2023-08-17T18:38:27.291Z,4.00
2023-08-17T18:40:55.477Z,4.28
2023-08-17T18:43:23.209Z,3.90
2023-08-17T18:45:50.903Z,4.43
2023-08-17T18:48:18.608Z,4.40
2023-08-17T18:50:46.262Z,4.50
2023-08-17T18:53:13.919Z,4.88
2023-08-17T18:55:42.920Z,4.85
2023-08-17T18:58:10.560Z,4.15
2023-08-17T19:00:38.184Z,3.47
2023-08-17T19:03:06.596Z,3.78
2023-08-17T19:05:34.525Z,4.43
2023-08-17T19:08:02.275Z,3.55
2023-08-17T19:10:29.920Z,4.55
2023-08-17T19:12:58.935Z,3.78
2023-08-17T19:15:26.674Z,4.30
2023-08-17T19:17:54.407Z,3.70
2023-08-17T19:20:22.059Z,3.30
2023-08-17T19:22:49.730Z,6.00
2023-08-17T19:25:17.641Z,4.40
2023-08-17T19:27:45.280Z,4.63
2023-08-17T19:30:14.497Z,4.22
2023-08-17T19:32:42.292Z,3.60
2023-08-17T19:35:10.339Z,4.00
2023-08-17T19:37:38.324Z,3.97
2023-08-17T19:40:07.457Z,3.67
2023-08-17T19:42:37.589Z,3.67
2023-08-17T19:45:06.176Z,3.83
2023-08-17T19:47:35.210Z,3.90
2023-08-17T19:50:03.904Z,3.70
2023-08-17T19:52:31.590Z,3.95
2023-08-17T19:54:59.232Z,3.88
2023-08-17T19:57:27.179Z,3.90
2023-08-17T19:59:55.080Z,3.92
2023-08-17T20:02:22.824Z,3.45
2023-08-17T20:04:51.830Z,3.65
2023-08-17T20:07:19.700Z,3.65
2023-08-17T20:09:47.508Z,3.50
2023-08-17T20:12:15.160Z,3.50
2023-08-17T20:14:42.819Z,3.22
2023-08-17T20:17:10.512Z,3.47
2023-08-17T20:19:39.131Z,3.45
2023-08-17T20:22:08.848Z,3.63
2023-08-17T20:24:36.542Z,3.53
2023-08-17T20:27:06.359Z,3.25
2023-08-17T20:29:34.450Z,3.45
2023-08-17T20:32:02.134Z,3.30
2023-08-17T20:34:30.344Z,3.72
2023-08-17T20:36:58.071Z,3.42
2023-08-17T20:39:27.111Z,3.60
2023-08-17T20:41:55.537Z,3.35
2023-08-17T20:44:23.213Z,3.67
2023-08-17T20:46:51.061Z,3.78
2023-08-17T20:49:18.920Z,3.60
2023-08-17T20:51:46.634Z,3.80
2023-08-17T20:54:14.716Z,4.30
2023-08-17T20:56:43.803Z,5.97
2023-08-17T20:59:11.682Z,5.00
2023-08-17T21:01:39.723Z,4.55
2023-08-17T21:04:08.167Z,3.60
2023-08-17T21:06:38.928Z,3.83
2023-08-17T21:09:14.162Z,3.70
2023-08-17T21:11:43.501Z,3.60
2023-08-17T21:14:11.158Z,3.55
2023-08-17T21:16:40.465Z,4.15
2023-08-17T21:19:08.156Z,4.32
2023-08-17T21:21:35.831Z,4.00
2023-08-17T21:24:03.563Z,4.63
2023-08-17T21:26:31.228Z,4.30
2023-08-17T21:29:00.204Z,4.13
2023-08-17T21:31:27.903Z,3.97
2023-08-17T21:33:55.662Z,3.65
2023-08-17T21:36:23.350Z,4.18
2023-08-17T21:38:51.233Z,4.13
2023-08-17T21:41:19.006Z,4.20
2023-08-17T21:43:46.734Z,4.07
2023-08-17T21:46:15.789Z,4.28
2023-08-17T21:48:43.479Z,5.18
2023-08-17T21:51:11.190Z,4.65
2023-08-17T21:53:38.835Z,4.25
2023-08-17T21:56:06.466Z,3.85
2023-08-17T21:58:34.088Z,3.15
2023-08-17T22:01:02.767Z,4.20
2023-08-17T22:03:32.084Z,3.97
2023-08-17T22:06:03.758Z,3.92
2023-08-17T22:08:31.497Z,4.07
2023-08-17T22:10:59.221Z,3.65
2023-08-17T22:13:26.957Z,3.80
2023-08-17T22:15:54.649Z,3.40
2023-08-17T22:18:22.396Z,3.88
2023-08-17T22:20:51.472Z,3.80
2023-08-17T22:23:19.165Z,3.35
2023-08-17T22:25:46.828Z,3.78
2023-08-17T22:28:14.511Z,3.90
2023-08-17T22:30:42.187Z,3.80
2023-08-17T22:33:09.843Z,3.53
2023-08-17T22:35:37.488Z,3.53
2023-08-17T22:38:06.632Z,3.08
2023-08-17T22:40:34.304Z,3.08
2023-08-17T22:43:01.954Z,3.33
2023-08-17T22:45:29.611Z,3.10
2023-08-17T22:47:57.414Z,3.10
2023-08-17T22:50:25.096Z,3.13
2023-08-17T22:52:54.897Z,2.80
2023-08-17T22:55:24.166Z,3.17
2023-08-17T22:57:51.858Z,3.00
2023-08-17T23:00:20.451Z,3.47
2023-08-17T23:02:48.323Z,2.92
2023-08-17T23:05:16.594Z,2.72
2023-08-17T23:07:44.316Z,3.00
2023-08-17T23:10:12.751Z,2.70
2023-08-17T23:12:41.843Z,3.10
2023-08-17T23:15:10.013Z,2.90
2023-08-17T23:17:37.656Z,3.15
2023-08-17T23:20:06.273Z,2.80
2023-08-17T23:22:33.960Z,2.92
2023-08-17T23:25:01.641Z,2.47
2023-08-17T23:27:29.486Z,2.75
2023-08-17T23:29:58.753Z,3.53
2023-08-17T23:32:28.789Z,3.05
2023-08-17T23:34:56.748Z,3.20
2023-08-17T23:37:24.606Z,3.47
2023-08-17T23:39:52.440Z,3.40
2023-08-17T23:42:20.248Z,3.17
2023-08-17T23:44:48.010Z,3.50
2023-08-17T23:47:17.021Z,3.40
2023-08-17T23:49:45.549Z,3.50
2023-08-17T23:52:13.459Z,3.63
2023-08-17T23:54:41.149Z,3.50
2023-08-17T23:57:08.834Z,3.72
2023-08-17T23:59:36.494Z,3.60
